Terminal Aerodrome Forecast
Issued by NWS

Home | Current Version | Previous Version | Graphics & Text | Print | Product List | Glossary On
Versions: 1 2 3 4 5 6 7 8 9 10 11 12 13
000
FTUS43 KGRB 172320
TAFRHI
TAF
KRHI 172320Z 1800/1824 24010G18KT P6SM SKC WS020/28055KT
     FM180300 26008KT P6SM SKC WS020/30045KT
     FM181000 26005KT P6SM BKN016 WS020/30040KT PROB30 1810/1815 2SM
      -SHSN
     FM182100 27004KT P6SM BKN018 WS020/30050KT=

USA.gov is the U.S. government's official web portal to all federal, state and local government web resources and services.